Latest Weather Observations for Dartmoor

IDV60801

Issued at 2:31 pm EST Saturday 18 April 2015 (issued every 30 minutes, with the page automatically refreshed every 10 minutes)

About weather observations | Map of weather stations | Latest weather observations for VIC | Other Formats
Station Details ID: 090194 Name: DARTMOOR Lat: -37.92 Lon: 141.26 Height: 51.0 m
Data from the previous 72 hours. | See also: Recent months at Dartmoor
Date/Time
EST
Temp
°C
App
Temp
°C
Dew
Point
Rel
Hum
%
Delta-T
°C
Wind Press
QNH
hPa
Press
MSL
hPa
Rain
since 9 am
mm
Dir
 
Spd
km/h
Gust
km/h
Spd
kts
Gust
kts
18/02:30pm 12.4 - - - - SW 17 24 9 13 1013.1 1013.1 2.2
18/02:00pm 12.9 - - - - SW 20 30 11 16 1012.6 1012.5 1.6
18/01:30pm 14.2 - - - - SW 26 41 14 22 1012.3 1012.2 1.4
18/01:12pm 15.6 - - - - NW 30 48 16 26 1011.7 1011.6 1.2
18/01:00pm 17.2 - - - - NW 24 35 13 19 1011.4 1011.3 0.0
18/12:30pm 16.6 - - - - NW 24 37 13 20 1012.1 1012.0 0.0
18/12:05pm 16.5 - - - - NNW 32 50 17 27 1012.3 1012.2 0.0
18/12:00pm 16.7 - - - - NNW 28 44 15 24 1012.2 1012.1 0.0
18/11:30am 16.7 - - - - NNW 26 41 14 22 1012.5 1012.4 0.0
18/11:00am 16.1 - - - - NNW 26 41 14 22 1012.8 1012.7 0.0
18/10:30am 15.1 - - - - NNW 22 39 12 21 1013.3 1013.3 0.0
18/10:00am 15.2 - - - - NNW 22 30 12 16 1013.2 1013.2 0.0
18/09:30am 14.6 - - - - NNW 19 30 10 16 1013.6 1013.6 0.0
18/09:00am 13.7 - - - - NNW 20 26 11 14 1013.7 1013.7 0.0
18/08:30am 12.4 - - - - NNW 15 22 8 12 1013.8 1013.8 0.0
18/08:00am 10.8 - - - - NNW 13 20 7 11 1013.9 1013.9 0.0
18/07:30am 9.7 - - - - NNW 11 17 6 9 1013.6 1013.6 0.0
18/07:00am 9.4 - - - - N 11 15 6 8 1013.5 1013.5 0.0
18/06:30am 9.6 - - - - N 13 19 7 10 1013.3 1013.3 0.0
18/06:00am 9.5 - - - - N 11 17 6 9 1013.1 1013.1 0.0
18/05:30am 9.3 - - - - N 9 13 5 7 1013.1 1013.1 0.0
18/05:00am 9.6 - - - - N 11 17 6 9 1012.9 1012.8 0.0
18/04:30am 9.9 - - - - NNW 11 15 6 8 1013.1 1013.1 0.0
18/04:00am 10.4 - - - - NW 9 15 5 8 1013.1 1013.1 0.0
18/03:30am 10.7 - - - - NNW 9 13 5 7 1013.1 1013.1 0.0
18/03:00am 11.2 - - - - NNW 9 13 5 7 1013.2 1013.2 0.0
18/02:30am 11.8 - - - - NNW 9 13 5 7 1013.5 1013.5 0.0
18/02:00am 11.8 - - - - NNW 9 13 5 7 1013.7 1013.7 0.0
18/01:30am 11.9 - - - - NNW 6 9 3 5 1014.2 1014.2 0.0
18/01:00am 11.8 - - - - NNW 4 6 2 3 1014.4 1014.4 0.0
18/12:30am 11.8 - - - - NNW 4 4 2 2 1014.6 1014.6 0.0
18/12:00am 11.9 - - - - WNW 4 6 2 3 1014.9 1014.9 0.0
 
Date/Time
EST
Temp
°C
App
Temp
°C
Dew
Point
Rel
Hum
%
Delta-T
°C
Wind Press
QNH
hPa
Press
MSL
hPa
Rain
since 9 am
mm
Dir
 
Spd
km/h
Gust
km/h
Spd
kts
Gust
kts
17/11:30pm 11.9 - - - - NW 2 6 1 3 1015.3 1015.3 0.0
17/11:00pm 12.2 - - - - CALM 0 0 0 0 1015.5 1015.5 0.0
17/10:30pm 12.3 - - - - CALM 0 0 0 0 1015.8 1015.8 0.0
17/10:00pm 12.3 - - - - CALM 0 0 0 0 1016.1 1016.1 0.0
17/09:30pm 12.3 - - - - CALM 0 0 0 0 1016.1 1016.1 0.0
17/09:00pm 12.4 - - - - CALM 0 0 0 0 1016.0 1016.0 0.0
17/08:30pm 12.5 - - - - CALM 0 0 0 0 1016.0 1016.0 0.0
17/08:00pm 12.7 - - - - CALM 0 0 0 0 1016.2 1016.2 0.0
17/07:30pm 12.8 - - - - CALM 0 0 0 0 1016.3 1016.3 0.0
17/07:00pm 13.0 - - - - SW 4 6 2 3 1016.3 1016.3 0.0
17/06:30pm 13.3 - - - - SW 7 9 4 5 1016.2 1016.2 0.0
17/06:00pm 13.8 - - - - SW 6 7 3 4 1016.0 1016.0 0.0
17/05:30pm 14.1 - - - - SSW 9 13 5 7 1015.9 1015.9 0.0
17/05:00pm 14.7 - - - - SSW 7 11 4 6 1016.0 1016.0 0.0
17/04:30pm 15.3 - - - - SSW 6 7 3 4 1016.2 1016.2 0.0
17/04:00pm 15.9 - - - - W 6 9 3 5 1016.6 1016.6 0.0
17/03:30pm 16.1 - - - - W 6 6 3 3 1016.8 1016.8 0.0
17/03:00pm 15.9 - - - - WNW 2 7 1 4 1017.2 1017.2 0.0
17/02:30pm 15.9 - - - - CALM 0 0 0 0 1017.6 1017.6 0.0
17/02:00pm 15.4 - - - - NNW 2 6 1 3 1018.3 1018.3 0.0
17/01:30pm 15.2 - - - - NNE 7 11 4 6 1018.4 1018.4 0.0
17/01:00pm 15.1 - - - - NE 7 11 4 6 1018.8 1018.8 0.0
17/12:30pm 14.7 - - - - E 6 11 3 6 1019.5 1019.5 0.0
17/12:00pm 14.4 - - - - ENE 7 17 4 9 1020.5 1020.5 0.0
17/11:30am 14.3 - - - - E 6 11 3 6 1021.0 1021.0 0.0
17/11:00am 13.8 - - - - E 9 17 5 9 1021.3 1021.3 0.0
17/10:30am 12.8 - - - - ESE 9 13 5 7 1021.9 1021.9 0.0
17/10:00am 10.6 - - - - E 6 9 3 5 1022.5 1022.5 0.0
17/09:30am 8.9 - - - - CALM 0 0 0 0 1023.1 1023.1 0.0
17/09:00am 8.2 - - - - CALM 0 0 0 0 1023.2 1023.2 0.0
17/08:30am 6.9 - - - - CALM 0 0 0 0 1023.3 1023.3 0.0
17/08:00am 5.8 - - - - CALM 0 0 0 0 1023.6 1023.6 0.0
17/07:30am 5.5 - - - - CALM 0 0 0 0 1023.6 1023.6 0.0
17/07:00am 5.3 - - - - CALM 0 0 0 0 1023.8 1023.8 0.0
17/06:30am 5.5 - - - - CALM 0 0 0 0 1023.7 1023.7 0.0
17/06:00am 6.0 - - - - CALM 0 0 0 0 1023.5 1023.5 0.0
17/05:30am 6.0 - - - - CALM 0 0 0 0 1023.5 1023.5 0.0
17/05:00am 6.7 - - - - CALM 0 0 0 0 1023.4 1023.4 0.0
17/04:30am 6.8 - - - - CALM 0 0 0 0 1023.4 1023.4 0.0
17/04:00am 6.9 - - - - CALM 0 0 0 0 1023.5 1023.5 0.0
17/03:30am 7.3 - - - - CALM 0 0 0 0 1024.0 1024.0 0.0
17/03:00am 7.4 - - - - CALM 0 0 0 0 1024.0 1024.0 0.0
17/02:30am 7.5 - - - - CALM 0 0 0 0 1024.1 1024.1 0.0
17/02:00am 7.5 - - - - SSW 6 7 3 4 1024.5 1024.5 0.0
17/01:30am 7.3 - - - - S 2 6 1 3 1024.4 1024.4 0.0
17/01:00am 7.5 - - - - CALM 0 0 0 0 1024.4 1024.4 0.0
17/12:30am 8.2 - - - - CALM 0 0 0 0 1024.9 1024.9 0.0
17/12:00am 8.2 - - - - CALM 0 0 0 0 1025.4 1025.4 0.0
 
Date/Time
EST
Temp
°C
App
Temp
°C
Dew
Point
Rel
Hum
%
Delta-T
°C
Wind Press
QNH
hPa
Press
MSL
hPa
Rain
since 9 am
mm
Dir
 
Spd
km/h
Gust
km/h
Spd
kts
Gust
kts
16/11:30pm 8.6 - - - - CALM 0 0 0 0 1025.9 1025.9 0.0
16/11:00pm 8.9 - - - - CALM 0 0 0 0 1026.3 1026.3 0.0
16/10:30pm 9.3 - - - - CALM 0 0 0 0 1026.5 1026.5 0.0
16/10:00pm 9.5 - - - - CALM 0 0 0 0 1026.6 1026.6 0.0
16/09:30pm 9.7 - - - - CALM 0 0 0 0 1026.6 1026.6 0.0
16/09:00pm 10.0 - - - - CALM 0 0 0 0 1026.6 1026.6 0.0
16/08:30pm 10.3 - - - - CALM 0 0 0 0 1026.3 1026.3 0.0
16/08:00pm 10.3 - - - - CALM 0 0 0 0 1026.3 1026.3 0.0
16/07:30pm 11.3 - - - - CALM 0 0 0 0 1026.5 1026.5 0.0
16/07:00pm 11.3 - - - - CALM 0 0 0 0 1026.3 1026.3 0.0
16/06:30pm 11.9 - - - - S 4 6 2 3 1026.1 1026.1 0.0
16/06:00pm 12.5 - - - - S 4 6 2 3 1025.9 1025.9 0.0
16/05:30pm 13.2 - - - - SSW 7 9 4 5 1025.8 1025.8 0.0
16/05:00pm 13.6 - - - - SSW 7 9 4 5 1025.9 1025.9 0.0
16/04:30pm 14.0 - - - - SSW 9 13 5 7 1025.9 1025.9 0.0
16/04:00pm 14.3 - - - - SSW 11 17 6 9 1025.8 1025.8 0.0
16/03:30pm 14.6 - - - - SSW 15 22 8 12 1025.7 1025.7 0.0
16/03:00pm 15.0 - - - - SSW 15 20 8 11 1025.6 1025.6 0.0
16/02:30pm 15.4 - - - - SSW 13 19 7 10 1025.6 1025.6 0.0
16/02:00pm 15.9 - - - - SSW 15 19 8 10 1025.5 1025.5 0.0
16/01:30pm 15.5 - - - - SSW 13 17 7 9 1025.8 1025.8 0.0
16/01:00pm 15.8 - - - - SSW 13 20 7 11 1026.2 1026.2 0.0
16/12:30pm 15.5 - - - - WSW 2 13 1 7 1026.5 1026.5 0.0
16/12:00pm 14.9 - - - - SSW 9 15 5 8 1026.7 1026.7 0.0
16/11:30am 15.0 - - - - S 13 22 7 12 1027.1 1027.1 0.0
16/11:00am 15.0 - - - - SSW 9 17 5 9 1027.1 1027.1 0.0
16/10:30am 14.3 - - - - SSE 7 11 4 6 1027.3 1027.3 0.0
16/10:00am 14.0 - - - - S 6 9 3 5 1027.4 1027.4 0.0
16/09:30am 13.7 - - - - S 6 9 3 5 1027.3 1027.3 0.0
16/09:00am 13.2 - - - - SSE 6 6 3 3 1026.7 1026.7 0.4
16/08:30am 12.7 - - - - SSW 4 6 2 3 1026.6 1026.6 0.4
16/08:00am 12.2 - - - - SSW 6 7 3 4 1026.3 1026.3 0.4
16/07:30am 11.6 - - - - SSW 4 7 2 4 1025.6 1025.6 0.4
16/07:00am 11.5 - - - - SW 4 6 2 3 1025.4 1025.4 0.4
16/06:30am 11.5 - - - - CALM 0 0 0 0 1025.3 1025.3 0.4
16/06:00am 11.7 - - - - CALM 0 0 0 0 1024.7 1024.7 0.4
16/05:30am 12.0 - - - - CALM 0 0 0 0 1024.7 1024.7 0.4
16/05:00am 12.2 - - - - W 6 7 3 4 1024.3 1024.3 0.4
16/04:30am 12.2 - - - - CALM 0 0 0 0 1023.8 1023.8 0.4
16/04:00am 12.3 - - - - CALM 0 0 0 0 1023.3 1023.3 0.4
16/03:30am 13.0 - - - - CALM 0 0 0 0 1023.2 1023.2 0.4
16/03:00am 13.2 - - - - CALM 0 0 0 0 1023.1 1023.1 0.4
16/02:30am 13.4 - - - - SW 6 7 3 4 1023.4 1023.4 0.4
16/02:00am 13.8 - - - - SW 6 9 3 5 1023.4 1023.4 0.4
16/01:30am 14.0 - - - - SW 6 13 3 7 1023.4 1023.4 0.4
16/01:00am 14.1 - - - - SW 7 11 4 6 1023.2 1023.2 0.4
16/12:30am 13.9 - - - - W 9 13 5 7 1023.1 1023.1 0.2
16/12:00am 13.4 - - - - NW 7 9 4 5 1022.8 1022.8 0.0
 
Date/Time
EST
Temp
°C
App
Temp
°C
Dew
Point
Rel
Hum
%
Delta-T
°C
Wind Press
QNH
hPa
Press
MSL
hPa
Rain
since 9 am
mm
Dir
 
Spd
km/h
Gust
km/h
Spd
kts
Gust
kts
15/11:30pm 13.4 - - - - WNW 7 9 4 5 1023.2 1023.2 0.0
15/11:00pm 13.6 - - - - WNW 7 9 4 5 1023.2 1023.2 0.0
15/10:30pm 14.2 - - - - W 7 11 4 6 1023.3 1023.3 0.0
15/10:00pm 14.9 - - - - W 9 15 5 8 1023.1 1023.1 0.0
15/09:30pm 15.4 - - - - W 9 13 5 7 1022.7 1022.7 0.0
15/09:00pm 15.9 - - - - W 7 13 4 7 1022.4 1022.4 0.0
15/08:30pm 16.0 - - - - W 7 11 4 6 1022.1 1022.1 0.0
15/08:00pm 15.9 - - - - W 7 13 4 7 1021.6 1021.6 0.0
15/07:30pm 15.8 - - - - W 7 9 4 5 1021.4 1021.4 0.0
15/07:00pm 15.9 - - - - W 6 9 3 5 1021.0 1021.0 0.0
15/06:30pm 16.1 - - - - WSW 11 15 6 8 1020.5 1020.5 0.0
15/06:00pm 16.6 - - - - WSW 15 24 8 13 1020.2 1020.2 0.0
15/05:30pm 17.4 - - - - W 7 13 4 7 1019.8 1019.8 0.0
15/05:00pm 17.9 - - - - WNW 11 20 6 11 1019.4 1019.4 0.0
15/04:30pm 17.3 - - - - WNW 19 26 10 14 1019.2 1019.2 0.0
15/04:00pm 19.0 - - - - W 17 22 9 12 1018.8 1018.8 0.0
15/03:30pm 19.8 - - - - W 15 24 8 13 1018.4 1018.4 0.0
15/03:00pm 19.8 - - - - WNW 17 26 9 14 1018.2 1018.2 0.0

Other Formats:

Comma delimited format used in spreadsheet applications
http://www.bom.gov.au/fwo/IDV60801/IDV60801.95822.axf

JavaScript Object Notation format (JSON) in row-major order
http://www.bom.gov.au/fwo/IDV60801/IDV60801.95822.json